createdAt,value
2018-07-01T00:00:37.746Z,0.00
2018-07-01T00:01:37.777Z,0.00
2018-07-01T00:02:37.751Z,0.00
2018-07-01T00:03:37.757Z,0.00
2018-07-01T00:04:37.736Z,0.00
2018-07-01T00:05:37.726Z,0.00
2018-07-01T00:06:37.740Z,0.00
2018-07-01T00:07:37.709Z,0.00
2018-07-01T00:08:37.802Z,0.00
2018-07-01T00:09:37.715Z,0.00
2018-07-01T00:10:37.759Z,0.00
2018-07-01T00:11:37.703Z,0.00
2018-07-01T00:12:37.708Z,0.00
2018-07-01T00:13:37.710Z,0.00
2018-07-01T00:14:37.704Z,0.00
2018-07-01T00:15:37.736Z,0.00
2018-07-01T00:16:37.733Z,0.00
2018-07-01T00:17:37.769Z,0.00
2018-07-01T00:18:37.752Z,0.00
2018-07-01T00:19:37.729Z,0.00
2018-07-01T00:20:37.794Z,0.00
2018-07-01T00:21:37.750Z,0.00
2018-07-01T00:22:37.718Z,0.00
2018-07-01T00:23:37.735Z,0.00
2018-07-01T00:24:37.808Z,0.00
2018-07-01T00:25:37.737Z,0.00
2018-07-01T00:26:37.758Z,0.00
2018-07-01T00:27:37.715Z,0.00
2018-07-01T00:28:37.735Z,0.00
2018-07-01T00:29:37.759Z,0.00
2018-07-01T00:30:37.711Z,0.00
2018-07-01T00:31:37.714Z,0.00
2018-07-01T00:32:37.744Z,0.00
2018-07-01T00:33:37.724Z,0.00
2018-07-01T00:34:40.334Z,0.00
2018-07-01T00:35:37.759Z,0.00
2018-07-01T00:36:37.749Z,0.00
2018-07-01T00:37:37.735Z,0.00
2018-07-01T00:38:37.727Z,0.00
2018-07-01T00:39:37.757Z,0.00
2018-07-01T00:40:37.738Z,0.00
2018-07-01T00:41:37.761Z,0.00
2018-07-01T00:42:37.712Z,0.00
2018-07-01T00:43:37.699Z,0.00
2018-07-01T00:44:37.750Z,0.00
2018-07-01T00:45:37.719Z,0.00
2018-07-01T00:46:37.720Z,0.00
2018-07-01T00:47:37.708Z,0.00
2018-07-01T00:48:37.763Z,0.00
2018-07-01T00:49:37.728Z,0.00
2018-07-01T00:50:37.729Z,0.00
2018-07-01T00:51:37.713Z,0.00
2018-07-01T00:52:37.757Z,0.00
2018-07-01T00:53:37.723Z,0.00
2018-07-01T00:54:37.739Z,0.00
2018-07-01T00:55:37.715Z,0.00
2018-07-01T00:56:37.726Z,0.00
2018-07-01T00:57:37.697Z,0.00
2018-07-01T00:58:37.733Z,0.00
2018-07-01T00:59:37.730Z,0.00
2018-07-01T01:00:37.716Z,0.00
2018-07-01T01:01:37.736Z,0.00
2018-07-01T01:02:37.684Z,0.00
2018-07-01T01:03:37.703Z,0.00
2018-07-01T01:04:37.756Z,0.00
2018-07-01T01:05:37.759Z,0.00
2018-07-01T01:06:37.752Z,0.00
2018-07-01T01:07:37.792Z,0.00
2018-07-01T01:08:37.706Z,0.00
2018-07-01T01:09:37.689Z,0.00
2018-07-01T01:10:37.724Z,0.00
2018-07-01T01:11:38.427Z,0.00
2018-07-01T01:12:37.767Z,0.00
2018-07-01T01:13:37.660Z,0.00
2018-07-01T01:14:37.727Z,0.00
2018-07-01T01:15:37.773Z,0.00
2018-07-01T01:16:37.724Z,0.00
2018-07-01T01:17:37.678Z,0.00
2018-07-01T01:18:37.762Z,0.00
2018-07-01T01:19:37.692Z,0.00
2018-07-01T01:20:37.686Z,0.00
2018-07-01T01:21:37.706Z,0.00
2018-07-01T01:22:37.719Z,0.00
2018-07-01T01:23:37.670Z,0.00
2018-07-01T01:24:37.728Z,0.00
2018-07-01T01:25:37.728Z,0.00
2018-07-01T01:26:37.662Z,0.00
2018-07-01T01:27:37.748Z,0.00
2018-07-01T01:28:37.705Z,0.00
2018-07-01T01:29:37.720Z,0.00
2018-07-01T01:30:37.693Z,0.00
2018-07-01T01:31:37.746Z,0.00
2018-07-01T01:32:38.378Z,0.00
2018-07-01T01:33:37.667Z,0.00
2018-07-01T01:34:37.674Z,0.00
2018-07-01T01:35:37.737Z,0.00
2018-07-01T01:36:37.894Z,0.00
2018-07-01T01:37:37.677Z,0.00
2018-07-01T01:38:37.716Z,0.00
2018-07-01T01:39:37.709Z,0.00
2018-07-01T01:40:37.708Z,0.00
2018-07-01T01:41:37.772Z,0.00
2018-07-01T01:42:37.681Z,0.00
2018-07-01T01:43:37.712Z,0.00
2018-07-01T01:44:37.667Z,0.00
2018-07-01T01:45:37.636Z,0.00
2018-07-01T01:46:37.674Z,0.00
2018-07-01T01:47:37.686Z,0.00
2018-07-01T01:48:37.750Z,0.00
2018-07-01T01:49:39.339Z,0.00
2018-07-01T01:50:37.787Z,0.00
2018-07-01T01:51:37.665Z,0.00
2018-07-01T01:52:37.612Z,0.00
2018-07-01T01:53:37.769Z,0.00
2018-07-01T01:54:37.663Z,0.00
2018-07-01T01:55:37.795Z,0.00
2018-07-01T01:56:37.619Z,0.00
2018-07-01T01:57:37.607Z,0.00
2018-07-01T01:58:38.376Z,0.00
2018-07-01T01:59:37.712Z,0.00
2018-07-01T02:00:37.611Z,0.00
2018-07-01T02:01:37.665Z,0.00
2018-07-01T02:02:37.623Z,0.00
2018-07-01T02:03:37.619Z,0.00
2018-07-01T02:04:46.838Z,0.00
2018-07-01T02:06:44.366Z,0.00
2018-07-01T02:09:33.604Z,0.00
2018-07-01T02:10:28.912Z,0.00
2018-07-01T02:11:29.921Z,0.00
2018-07-01T02:12:28.812Z,0.00
2018-07-01T02:13:29.394Z,0.00
2018-07-01T02:14:28.746Z,0.00
2018-07-01T02:15:28.856Z,0.00
2018-07-01T02:16:28.884Z,0.00
2018-07-01T02:17:28.907Z,0.00
2018-07-01T02:18:28.559Z,0.00
2018-07-01T02:19:28.626Z,0.00
2018-07-01T02:20:28.522Z,0.00
2018-07-01T02:21:28.574Z,0.00
2018-07-01T02:22:28.724Z,0.00
2018-07-01T02:23:30.431Z,0.00
2018-07-01T02:24:28.586Z,0.00
2018-07-01T02:25:28.461Z,0.00
2018-07-01T02:26:28.573Z,0.00
2018-07-01T02:27:28.500Z,0.00
2018-07-01T02:28:28.531Z,0.00
2018-07-01T02:29:28.627Z,0.00
2018-07-01T02:30:29.516Z,0.00
2018-07-01T02:31:28.474Z,0.00
2018-07-01T02:32:29.337Z,0.00
2018-07-01T02:33:28.458Z,0.00
2018-07-01T02:34:28.534Z,0.00
2018-07-01T02:35:28.563Z,4.00
2018-07-01T02:36:28.559Z,4.00
2018-07-01T02:37:28.698Z,0.00
2018-07-01T02:38:28.668Z,0.00
2018-07-01T02:39:29.413Z,0.00
2018-07-01T02:40:42.217Z,4.00
2018-07-01T02:42:22.235Z,0.00
2018-07-01T02:43:23.222Z,4.00
2018-07-01T02:44:22.188Z,4.00
2018-07-01T02:45:22.456Z,4.00
2018-07-01T02:46:21.945Z,4.00
2018-07-01T02:47:22.077Z,4.00
2018-07-01T02:48:21.921Z,8.00
2018-07-01T02:49:22.017Z,8.00
2018-07-01T02:50:22.125Z,8.00
2018-07-01T02:51:21.942Z,12.00
2018-07-01T02:52:21.836Z,12.00
2018-07-01T02:53:21.873Z,12.00
2018-07-01T02:54:26.507Z,12.00
2018-07-01T02:55:21.843Z,12.00
2018-07-01T02:56:24.027Z,16.00
2018-07-01T02:57:21.862Z,16.00
2018-07-01T02:58:21.943Z,20.00
2018-07-01T02:59:22.007Z,20.00
2018-07-01T03:00:30.939Z,24.00
2018-07-01T03:02:35.086Z,28.00
2018-07-01T03:03:16.700Z,32.00
2018-07-01T03:04:16.650Z,32.00
2018-07-01T03:05:16.688Z,36.00
2018-07-01T03:06:18.089Z,40.00
2018-07-01T03:07:17.521Z,40.00
2018-07-01T03:08:16.611Z,48.00
2018-07-01T03:09:16.665Z,48.00
2018-07-01T03:10:16.659Z,52.00
2018-07-01T03:11:16.678Z,60.00
2018-07-01T03:12:16.288Z,60.00
2018-07-01T03:13:16.344Z,64.00
2018-07-01T03:14:16.524Z,68.00
2018-07-01T03:15:16.382Z,72.00
2018-07-01T03:16:18.409Z,80.00
2018-07-01T03:17:16.729Z,84.00
2018-07-01T03:18:17.427Z,88.00
2018-07-01T03:19:16.559Z,96.00
2018-07-01T03:20:16.629Z,100.00
2018-07-01T03:21:16.403Z,108.00
2018-07-01T03:22:16.343Z,112.00
2018-07-01T03:23:58.396Z,116.00
2018-07-01T03:25:15.588Z,132.00
2018-07-01T03:27:51.067Z,144.00
2018-07-01T03:28:43.147Z,148.00
2018-07-01T03:29:43.547Z,156.00
2018-07-01T03:30:41.879Z,160.00
2018-07-01T03:31:41.236Z,168.00
2018-07-01T03:32:41.281Z,176.00
2018-07-01T03:33:43.105Z,180.00
2018-07-01T03:34:41.260Z,188.00
2018-07-01T03:35:41.190Z,192.00
2018-07-01T03:36:41.242Z,200.00
2018-07-01T03:37:41.145Z,208.00
2018-07-01T03:38:41.045Z,212.00
2018-07-01T03:39:42.975Z,220.00
2018-07-01T03:40:41.026Z,224.00
2018-07-01T03:41:41.102Z,236.00
2018-07-01T03:42:42.902Z,244.00
2018-07-01T03:43:42.852Z,252.00
2018-07-01T03:44:40.995Z,268.00
2018-07-01T03:45:41.049Z,292.00
2018-07-01T03:46:41.168Z,316.00
2018-07-01T03:47:41.194Z,332.00
2018-07-01T03:48:44.775Z,344.00
2018-07-01T03:49:42.822Z,360.00
2018-07-01T03:50:42.786Z,372.00
2018-07-01T03:51:40.997Z,380.00
2018-07-01T03:52:41.190Z,396.00
2018-07-01T03:53:41.109Z,408.00
2018-07-01T03:54:40.960Z,420.00
2018-07-01T03:55:41.074Z,428.00
2018-07-01T03:56:42.786Z,436.00
2018-07-01T03:57:40.993Z,448.00
2018-07-01T03:58:41.141Z,456.00
2018-07-01T03:59:40.944Z,464.00
2018-07-01T04:00:43.830Z,476.00
2018-07-01T04:01:40.952Z,484.00
2018-07-01T04:02:42.758Z,500.00
2018-07-01T04:03:42.771Z,512.00
2018-07-01T04:04:40.882Z,528.00
2018-07-01T04:05:41.034Z,544.00
2018-07-01T04:06:43.734Z,560.00
2018-07-01T04:07:40.920Z,580.00
2018-07-01T04:08:40.939Z,600.00
2018-07-01T04:09:40.974Z,620.00
2018-07-01T04:10:40.983Z,636.00
2018-07-01T04:11:40.917Z,652.00
2018-07-01T04:12:40.901Z,660.00
2018-07-01T04:13:42.846Z,676.00
2018-07-01T04:14:42.863Z,676.00
2018-07-01T04:15:42.778Z,688.00
2018-07-01T04:16:40.916Z,696.00
2018-07-01T04:17:40.979Z,700.00
2018-07-01T04:18:40.971Z,704.00
2018-07-01T04:19:42.813Z,704.00
2018-07-01T04:20:42.786Z,708.00
2018-07-01T04:21:40.873Z,700.00
2018-07-01T04:22:40.927Z,696.00
2018-07-01T04:23:40.896Z,688.00
2018-07-01T04:24:40.923Z,676.00
2018-07-01T04:25:42.720Z,668.00
2018-07-01T04:26:40.853Z,660.00
2018-07-01T04:27:40.934Z,648.00
2018-07-01T04:28:42.762Z,636.00
2018-07-01T04:29:40.925Z,628.00
2018-07-01T04:30:40.878Z,616.00
2018-07-01T04:31:40.884Z,612.00
2018-07-01T04:32:40.841Z,600.00
2018-07-01T04:33:40.992Z,592.00
2018-07-01T04:34:40.821Z,584.00
2018-07-01T04:35:42.794Z,576.00
2018-07-01T04:36:40.769Z,572.00
2018-07-01T04:37:40.808Z,572.00
2018-07-01T04:38:42.738Z,568.00
2018-07-01T04:39:40.911Z,568.00
2018-07-01T04:40:40.839Z,568.00
2018-07-01T04:41:42.746Z,568.00
2018-07-01T04:42:40.843Z,568.00
2018-07-01T04:43:40.802Z,568.00
2018-07-01T04:44:40.891Z,568.00
2018-07-01T04:45:40.884Z,564.00
2018-07-01T04:46:41.016Z,572.00
2018-07-01T04:47:40.914Z,572.00
2018-07-01T04:48:40.864Z,568.00
2018-07-01T04:49:40.879Z,572.00
2018-07-01T04:50:42.783Z,572.00
2018-07-01T04:51:42.898Z,576.00
2018-07-01T04:52:42.964Z,576.00
2018-07-01T04:53:40.844Z,576.00
2018-07-01T04:54:40.782Z,576.00
2018-07-01T04:55:44.711Z,576.00
2018-07-01T04:56:40.906Z,576.00
2018-07-01T04:57:40.768Z,576.00
2018-07-01T04:58:40.754Z,576.00
2018-07-01T04:59:40.767Z,576.00
2018-07-01T05:00:40.726Z,580.00
2018-07-01T05:01:40.731Z,588.00
2018-07-01T05:02:40.849Z,600.00
2018-07-01T05:03:42.659Z,620.00
2018-07-01T05:04:40.733Z,632.00
2018-07-01T05:05:40.736Z,648.00
2018-07-01T05:06:40.760Z,664.00
2018-07-01T05:07:40.729Z,680.00
2018-07-01T05:08:40.764Z,692.00
2018-07-01T05:09:40.726Z,708.00
2018-07-01T05:10:40.751Z,720.00
2018-07-01T05:11:40.721Z,740.00
2018-07-01T05:12:40.747Z,764.00
2018-07-01T05:13:40.860Z,784.00
2018-07-01T05:14:40.805Z,808.00
2018-07-01T05:15:40.724Z,828.00
2018-07-01T05:16:40.723Z,852.00
2018-07-01T05:17:40.723Z,872.00
2018-07-01T05:18:40.738Z,904.00
2018-07-01T05:19:40.748Z,936.00
2018-07-01T05:20:40.722Z,972.00
2018-07-01T05:21:40.744Z,1008.00
2018-07-01T05:22:40.719Z,1036.00
2018-07-01T05:23:40.757Z,1076.00
2018-07-01T05:24:40.729Z,1112.00
2018-07-01T05:27:22.508Z,1224.00
2018-07-01T05:28:23.009Z,1260.00
2018-07-01T05:30:15.529Z,1324.00
2018-07-01T05:31:14.944Z,1364.00
2018-07-01T05:33:09.338Z,1424.00
2018-07-01T05:34:07.851Z,1456.00
2018-07-01T05:36:02.703Z,1520.00
2018-07-01T05:37:03.261Z,1548.00
2018-07-01T05:38:56.069Z,1584.00
2018-07-01T05:39:55.091Z,1580.00
2018-07-01T05:41:48.971Z,1584.00
2018-07-01T05:42:48.895Z,1584.00
2018-07-01T05:44:42.294Z,1596.00
2018-07-01T05:45:41.928Z,1600.00
2018-07-01T05:47:36.247Z,1616.00
2018-07-01T05:48:35.756Z,1624.00
2018-07-01T05:50:28.183Z,1636.00
2018-07-01T05:51:29.132Z,1644.00
2018-07-01T05:53:21.595Z,1668.00
2018-07-01T05:54:21.031Z,1692.00
2018-07-01T05:55:22.007Z,1716.00
2018-07-01T05:56:22.532Z,1728.00
2018-07-01T05:57:22.051Z,1752.00
2018-07-01T05:58:21.035Z,1772.00
2018-07-01T05:59:22.103Z,1796.00
2018-07-01T06:00:22.648Z,1820.00
2018-07-01T06:01:21.052Z,1840.00
2018-07-01T06:02:21.064Z,1848.00
2018-07-01T06:03:22.020Z,1872.00
2018-07-01T06:04:21.033Z,1880.00
2018-07-01T06:05:21.588Z,1884.00
2018-07-01T06:06:20.651Z,1896.00
2018-07-01T06:07:20.570Z,1904.00
2018-07-01T06:08:20.586Z,1912.00
2018-07-01T06:09:20.565Z,1928.00
2018-07-01T06:10:20.592Z,1932.00
2018-07-01T06:11:20.608Z,1948.00
2018-07-01T06:12:20.574Z,1960.00
2018-07-01T06:13:20.603Z,1972.00
2018-07-01T06:14:20.614Z,1972.00
2018-07-01T06:15:20.618Z,1976.00
2018-07-01T06:16:20.686Z,1988.00
2018-07-01T06:17:20.606Z,1996.00
2018-07-01T06:18:20.630Z,1996.00
2018-07-01T06:19:20.629Z,2032.00
2018-07-01T06:20:20.641Z,2012.00
2018-07-01T06:21:20.644Z,2024.00
2018-07-01T06:22:20.625Z,2032.00
2018-07-01T06:23:20.637Z,2048.00
2018-07-01T06:24:20.642Z,2072.00
2018-07-01T06:25:20.617Z,2140.00
2018-07-01T06:26:20.627Z,2568.00
2018-07-01T06:27:20.661Z,3380.00
2018-07-01T06:28:20.638Z,4032.00
2018-07-01T06:29:20.640Z,4248.00
2018-07-01T06:30:20.618Z,4296.00
2018-07-01T06:31:20.670Z,4320.00
2018-07-01T06:32:20.682Z,4256.00
2018-07-01T06:33:20.672Z,4260.00
2018-07-01T06:34:20.681Z,4264.00
2018-07-01T06:35:20.741Z,4268.00
2018-07-01T06:36:20.650Z,4292.00
2018-07-01T06:37:20.653Z,4148.00
2018-07-01T06:38:20.666Z,4228.00
2018-07-01T06:39:22.627Z,4240.00
2018-07-01T06:40:20.743Z,4244.00
2018-07-01T06:41:20.684Z,4192.00
2018-07-01T06:42:20.639Z,4236.00
2018-07-01T06:43:20.682Z,4248.00
2018-07-01T06:44:20.665Z,4248.00
2018-07-01T06:45:20.676Z,4248.00
2018-07-01T06:46:20.680Z,4292.00
2018-07-01T06:47:20.853Z,4284.00
2018-07-01T06:48:20.694Z,4304.00
2018-07-01T06:49:20.736Z,4316.00
2018-07-01T06:50:20.700Z,4300.00
2018-07-01T06:51:20.714Z,4304.00
2018-07-01T06:52:20.719Z,4304.00
2018-07-01T06:53:20.756Z,4304.00
2018-07-01T06:54:22.738Z,4328.00
2018-07-01T06:55:20.743Z,4344.00
2018-07-01T06:56:23.785Z,4340.00
2018-07-01T06:57:20.784Z,4356.00
2018-07-01T06:58:20.820Z,4364.00
2018-07-01T06:59:20.759Z,4356.00
2018-07-01T07:00:20.808Z,4408.00
2018-07-01T07:01:20.826Z,4436.00
2018-07-01T07:02:20.839Z,4424.00
2018-07-01T07:03:23.702Z,4468.00
2018-07-01T07:04:20.826Z,4532.00
2018-07-01T07:05:20.799Z,4524.00
2018-07-01T07:06:20.851Z,4568.00
2018-07-01T07:07:20.799Z,4612.00
2018-07-01T07:08:20.815Z,4636.00
2018-07-01T07:09:20.847Z,4660.00
2018-07-01T07:10:20.884Z,4700.00
2018-07-01T07:11:20.849Z,4756.00
2018-07-01T07:12:20.855Z,4848.00
2018-07-01T07:13:20.901Z,5004.00
2018-07-01T07:14:20.882Z,5080.00
2018-07-01T07:15:21.023Z,5180.00
2018-07-01T07:16:22.802Z,5292.00
2018-07-01T07:17:21.098Z,5412.00
2018-07-01T07:18:21.021Z,5504.00
2018-07-01T07:19:20.985Z,5596.00
2018-07-01T07:20:21.107Z,5716.00
2018-07-01T07:21:21.172Z,5772.00
2018-07-01T07:22:21.008Z,5788.00
2018-07-01T07:23:22.284Z,5820.00
2018-07-01T07:24:21.158Z,5868.00
2018-07-01T07:25:21.036Z,5960.00
2018-07-01T07:26:21.048Z,6088.00
2018-07-01T07:27:21.030Z,6120.00
2018-07-01T07:28:20.996Z,6116.00
2018-07-01T07:29:21.072Z,6128.00
2018-07-01T07:30:20.964Z,6188.00
2018-07-01T07:31:21.029Z,6332.00
2018-07-01T07:32:20.964Z,6456.00
2018-07-01T07:33:20.960Z,6488.00
2018-07-01T07:34:21.100Z,6516.00
2018-07-01T07:35:20.996Z,6532.00
2018-07-01T07:36:21.004Z,6532.00
2018-07-01T07:37:21.044Z,6564.00
2018-07-01T07:38:21.146Z,6520.00
2018-07-01T07:39:21.163Z,6564.00
2018-07-01T07:40:21.350Z,6568.00
2018-07-01T07:41:21.157Z,6540.00
2018-07-01T07:42:21.122Z,6572.00
2018-07-01T07:43:21.050Z,6572.00
2018-07-01T07:44:21.079Z,6576.00
2018-07-01T07:45:21.236Z,6588.00
2018-07-01T07:46:21.405Z,6652.00
2018-07-01T07:47:22.798Z,6668.00
2018-07-01T07:48:21.288Z,6712.00
2018-07-01T07:49:22.890Z,6752.00
2018-07-01T07:50:23.370Z,6812.00
2018-07-01T07:51:22.224Z,6864.00
2018-07-01T07:52:22.785Z,6916.00
2018-07-01T07:53:21.360Z,6936.00
2018-07-01T07:54:21.216Z,7044.00
2018-07-01T07:55:21.184Z,7116.00
2018-07-01T07:56:22.678Z,7212.00
2018-07-01T07:59:38.608Z,7360.00
2018-07-01T08:00:23.133Z,7404.00
2018-07-01T08:02:18.276Z,7488.00
2018-07-01T08:03:17.644Z,7620.00
2018-07-01T08:05:10.066Z,7784.00
2018-07-01T08:06:11.602Z,7824.00
2018-07-01T08:07:10.673Z,7892.00
2018-07-01T08:08:10.664Z,7924.00
2018-07-01T08:09:11.559Z,8016.00
2018-07-01T08:10:11.077Z,8144.00
2018-07-01T08:11:11.942Z,8252.00
2018-07-01T08:12:10.310Z,8324.00
2018-07-01T08:13:10.155Z,8432.00
2018-07-01T08:14:10.099Z,8464.00
2018-07-01T08:15:09.862Z,8476.00
2018-07-01T08:16:09.808Z,8400.00
2018-07-01T08:17:09.838Z,8420.00
2018-07-01T08:18:16.108Z,8440.00
2018-07-01T08:19:12.805Z,8484.00
2018-07-01T08:20:21.185Z,8536.00
2018-07-01T08:22:30.204Z,8532.00
2018-07-01T08:23:19.605Z,8568.00
2018-07-01T08:25:17.529Z,8652.00
2018-07-01T08:26:17.191Z,8720.00
2018-07-01T08:27:14.369Z,8740.00
2018-07-01T08:28:17.128Z,8772.00
2018-07-01T08:29:16.564Z,8776.00
2018-07-01T08:30:14.916Z,8832.00
2018-07-01T08:31:14.341Z,8872.00
2018-07-01T08:32:14.312Z,8964.00
2018-07-01T08:33:13.909Z,8956.00
2018-07-01T08:34:14.842Z,9028.00
2018-07-01T08:35:21.119Z,9072.00
2018-07-01T08:36:24.596Z,9136.00
2018-07-01T08:38:09.274Z,9236.00
2018-07-01T08:39:07.507Z,9276.00
2018-07-01T08:40:07.989Z,9292.00
2018-07-01T08:41:07.498Z,9316.00
2018-07-01T08:42:07.455Z,9400.00
2018-07-01T08:43:07.878Z,9464.00
2018-07-01T08:44:07.244Z,9516.00
2018-07-01T08:45:07.147Z,9620.00
2018-07-01T08:46:07.964Z,9676.00
2018-07-01T08:47:07.270Z,9756.00
2018-07-01T08:48:07.291Z,9916.00
2018-07-01T08:49:07.171Z,10168.00
2018-07-01T08:50:07.405Z,10368.00
2018-07-01T08:51:07.290Z,10480.00
2018-07-01T08:52:07.279Z,10500.00
2018-07-01T08:53:07.335Z,10484.00
2018-07-01T08:54:07.449Z,10388.00
2018-07-01T08:55:07.405Z,10216.00
2018-07-01T08:56:07.318Z,10084.00
2018-07-01T08:57:07.287Z,9952.00
2018-07-01T08:58:07.283Z,9752.00
2018-07-01T08:59:07.411Z,9660.00
2018-07-01T09:00:07.487Z,9512.00
2018-07-01T09:01:07.405Z,9420.00
2018-07-01T09:02:07.294Z,9252.00
2018-07-01T09:03:07.433Z,9008.00
2018-07-01T09:04:07.390Z,8600.00
2018-07-01T09:05:07.434Z,8112.00
2018-07-01T09:06:07.352Z,7688.00
2018-07-01T09:07:07.444Z,7144.00
2018-07-01T09:08:07.469Z,6500.00
2018-07-01T09:09:07.521Z,5856.00
2018-07-01T09:10:07.428Z,5392.00
2018-07-01T09:11:07.522Z,5008.00
2018-07-01T09:12:07.596Z,4624.00
2018-07-01T09:13:07.554Z,4284.00
2018-07-01T09:14:07.526Z,3928.00
2018-07-01T09:15:07.665Z,3560.00
2018-07-01T09:16:07.467Z,3276.00
2018-07-01T09:17:07.510Z,3116.00
2018-07-01T09:18:07.433Z,3028.00
2018-07-01T09:19:07.475Z,2976.00
2018-07-01T09:20:07.451Z,2952.00
2018-07-01T09:21:08.472Z,2940.00
2018-07-01T09:22:07.463Z,2948.00
2018-07-01T09:23:07.504Z,2944.00
2018-07-01T09:24:07.548Z,2944.00
2018-07-01T09:25:07.531Z,2948.00
2018-07-01T09:26:07.585Z,2944.00
2018-07-01T09:27:07.555Z,2940.00
2018-07-01T09:28:07.596Z,2948.00
2018-07-01T09:29:07.535Z,2948.00
2018-07-01T09:30:07.534Z,2948.00
2018-07-01T09:31:07.619Z,2944.00
2018-07-01T09:32:07.648Z,2940.00
2018-07-01T09:33:07.615Z,2944.00
2018-07-01T09:34:07.546Z,2940.00
2018-07-01T09:35:07.567Z,2952.00
2018-07-01T09:36:07.616Z,2948.00
2018-07-01T09:37:07.574Z,2944.00
2018-07-01T09:38:07.585Z,2940.00
2018-07-01T09:39:07.594Z,2952.00
2018-07-01T09:40:07.571Z,2944.00
2018-07-01T09:41:07.585Z,2940.00
2018-07-01T09:42:07.590Z,2944.00
2018-07-01T09:43:07.593Z,2940.00
2018-07-01T09:44:07.686Z,2960.00
2018-07-01T09:45:07.765Z,2960.00
2018-07-01T09:46:07.646Z,2960.00
2018-07-01T09:47:07.639Z,2968.00
2018-07-01T09:48:07.668Z,2968.00
2018-07-01T09:49:07.664Z,2964.00
2018-07-01T09:50:07.708Z,2968.00
2018-07-01T09:51:07.738Z,2960.00
2018-07-01T09:52:07.660Z,2960.00
2018-07-01T09:53:07.780Z,2960.00
2018-07-01T09:54:07.711Z,2956.00
2018-07-01T09:55:07.679Z,2948.00
2018-07-01T09:56:07.692Z,2960.00
2018-07-01T09:57:07.712Z,2940.00
2018-07-01T09:58:07.719Z,2952.00
2018-07-01T09:59:07.678Z,2944.00
2018-07-01T10:00:07.720Z,2936.00
2018-07-01T10:01:07.859Z,2948.00
2018-07-01T10:02:07.728Z,2952.00
2018-07-01T10:03:07.720Z,2952.00
2018-07-01T10:04:07.720Z,2932.00
2018-07-01T10:05:07.732Z,2948.00
2018-07-01T10:06:07.741Z,2936.00
2018-07-01T10:07:07.777Z,2920.00
2018-07-01T10:08:07.749Z,2924.00
2018-07-01T10:09:07.757Z,2924.00
2018-07-01T10:10:07.758Z,2924.00
2018-07-01T10:11:08.613Z,2916.00
2018-07-01T10:12:07.773Z,2904.00
2018-07-01T10:13:07.789Z,2896.00
2018-07-01T10:14:07.797Z,2912.00
2018-07-01T10:15:07.767Z,2908.00
2018-07-01T10:16:07.842Z,2916.00
2018-07-01T10:17:07.891Z,2912.00
2018-07-01T10:18:07.835Z,2916.00
2018-07-01T10:19:07.880Z,2928.00
2018-07-01T10:20:07.786Z,2904.00
2018-07-01T10:21:08.580Z,2896.00
2018-07-01T10:22:08.156Z,2892.00
2018-07-01T10:23:07.859Z,2888.00
2018-07-01T10:24:09.525Z,2876.00
2018-07-01T10:25:07.812Z,2872.00
2018-07-01T10:26:07.879Z,2860.00
2018-07-01T10:27:07.939Z,2856.00
2018-07-01T10:28:07.860Z,2852.00
2018-07-01T10:29:07.835Z,2844.00
2018-07-01T10:30:07.862Z,2832.00
2018-07-01T10:31:08.439Z,2840.00
2018-07-01T10:32:07.962Z,2828.00
2018-07-01T10:33:07.858Z,2800.00
2018-07-01T10:34:07.923Z,2812.00
2018-07-01T10:35:08.473Z,2808.00
2018-07-01T10:36:07.879Z,2804.00
2018-07-01T10:37:08.457Z,2788.00
2018-07-01T10:38:07.941Z,2796.00
2018-07-01T10:39:07.918Z,2788.00
2018-07-01T10:40:07.961Z,2784.00
2018-07-01T10:41:07.987Z,2776.00
2018-07-01T10:42:07.919Z,2756.00
2018-07-01T10:43:07.914Z,2744.00
2018-07-01T10:44:07.950Z,2740.00
2018-07-01T10:45:07.928Z,2720.00
2018-07-01T10:46:07.981Z,2720.00
2018-07-01T10:47:07.970Z,2724.00
2018-07-01T10:48:07.980Z,2716.00
2018-07-01T10:49:07.961Z,2704.00
2018-07-01T10:50:07.981Z,2700.00
2018-07-01T10:51:08.001Z,2684.00
2018-07-01T10:52:07.966Z,2676.00
2018-07-01T10:53:07.975Z,2660.00
2018-07-01T10:54:07.997Z,2648.00
2018-07-01T10:55:08.010Z,2636.00
2018-07-01T10:56:08.027Z,2632.00
2018-07-01T10:57:08.448Z,2624.00
2018-07-01T10:58:08.038Z,2608.00
2018-07-01T10:59:08.112Z,2604.00
2018-07-01T11:00:08.064Z,2596.00
2018-07-01T11:01:08.053Z,2588.00
2018-07-01T11:02:08.050Z,2572.00
2018-07-01T11:03:08.040Z,2568.00
2018-07-01T11:04:08.077Z,2556.00
2018-07-01T11:05:08.073Z,2556.00
2018-07-01T11:06:08.127Z,2548.00
2018-07-01T11:07:08.083Z,2536.00
2018-07-01T11:08:08.103Z,2528.00
2018-07-01T11:09:08.099Z,2528.00
2018-07-01T11:10:09.005Z,2520.00
2018-07-01T11:11:08.100Z,2508.00
2018-07-01T11:12:08.098Z,2492.00
2018-07-01T11:13:08.149Z,2500.00
2018-07-01T11:14:08.181Z,2484.00
2018-07-01T11:15:08.149Z,2480.00
2018-07-01T11:16:08.158Z,2480.00
2018-07-01T11:17:08.181Z,2472.00
2018-07-01T11:18:08.174Z,2456.00
2018-07-01T11:19:08.165Z,2452.00
2018-07-01T11:20:08.155Z,2448.00
2018-07-01T11:21:08.209Z,2440.00
2018-07-01T11:22:08.266Z,2436.00
2018-07-01T11:23:08.183Z,2428.00
2018-07-01T11:24:08.192Z,2420.00
2018-07-01T11:25:08.199Z,2416.00
2018-07-01T11:26:08.195Z,2408.00
2018-07-01T11:27:08.482Z,2396.00
2018-07-01T11:28:08.184Z,2388.00
2018-07-01T11:29:08.225Z,2368.00
2018-07-01T11:30:08.210Z,2376.00
2018-07-01T11:31:08.214Z,2372.00
2018-07-01T11:32:08.210Z,2360.00
2018-07-01T11:33:08.248Z,2360.00
2018-07-01T11:34:11.081Z,2356.00
2018-07-01T11:35:08.296Z,2344.00
2018-07-01T11:36:08.243Z,2336.00
2018-07-01T11:37:08.270Z,2328.00
2018-07-01T11:38:08.310Z,2320.00
2018-07-01T11:39:08.276Z,2308.00
2018-07-01T11:40:08.270Z,2304.00
2018-07-01T11:41:08.297Z,2292.00
2018-07-01T11:42:08.366Z,2292.00
2018-07-01T11:43:08.326Z,2280.00
2018-07-01T11:44:08.323Z,2276.00
2018-07-01T11:45:08.291Z,2268.00
2018-07-01T11:46:08.325Z,2260.00
2018-07-01T11:47:08.303Z,2256.00
2018-07-01T11:48:08.333Z,2244.00
2018-07-01T11:49:08.368Z,2236.00
2018-07-01T11:50:08.316Z,2228.00
2018-07-01T11:51:08.358Z,2220.00
2018-07-01T11:52:08.371Z,2220.00
2018-07-01T11:53:08.331Z,2212.00
2018-07-01T11:54:09.948Z,2204.00
2018-07-01T11:55:08.382Z,2196.00
2018-07-01T11:56:08.360Z,2192.00
2018-07-01T11:57:08.394Z,2188.00
2018-07-01T11:58:08.383Z,2180.00
2018-07-01T11:59:08.378Z,2176.00
2018-07-01T12:00:08.446Z,2172.00
2018-07-01T12:01:08.505Z,2148.00
2018-07-01T12:02:08.443Z,2148.00
2018-07-01T12:03:08.415Z,2148.00
2018-07-01T12:04:08.434Z,2140.00
2018-07-01T12:05:16.665Z,2132.00
2018-07-01T12:06:08.450Z,2136.00
2018-07-01T12:07:08.469Z,2124.00
2018-07-01T12:08:08.465Z,2124.00
2018-07-01T12:09:08.436Z,2116.00
2018-07-01T12:10:08.487Z,2116.00
2018-07-01T12:11:16.009Z,2108.00
2018-07-01T12:13:02.802Z,2100.00
2018-07-01T12:14:02.826Z,2092.00
2018-07-01T12:15:03.338Z,2084.00
2018-07-01T12:16:03.788Z,2080.00
2018-07-01T12:17:02.835Z,2072.00
2018-07-01T12:18:03.371Z,2064.00
2018-07-01T12:19:02.704Z,2056.00
2018-07-01T12:20:03.344Z,2056.00
2018-07-01T12:21:03.371Z,2052.00
2018-07-01T12:22:02.612Z,2048.00
2018-07-01T12:23:02.418Z,2036.00
2018-07-01T12:24:02.423Z,2036.00
2018-07-01T12:25:02.438Z,2024.00
2018-07-01T12:26:02.438Z,2024.00
2018-07-01T12:27:02.478Z,2020.00
2018-07-01T12:28:02.440Z,2012.00
2018-07-01T12:29:02.429Z,2004.00
2018-07-01T12:30:02.427Z,2000.00
2018-07-01T12:31:02.447Z,1992.00
2018-07-01T12:32:02.503Z,1984.00
2018-07-01T12:33:02.474Z,1980.00
2018-07-01T12:34:02.464Z,1976.00
2018-07-01T12:35:02.483Z,1968.00
2018-07-01T12:36:02.489Z,1964.00
2018-07-01T12:37:02.483Z,1956.00
2018-07-01T12:38:02.475Z,1952.00
2018-07-01T12:39:02.508Z,1948.00
2018-07-01T12:40:02.554Z,1948.00
2018-07-01T12:41:02.551Z,1936.00
2018-07-01T12:42:02.572Z,1932.00
2018-07-01T12:43:02.563Z,1928.00
2018-07-01T12:44:02.544Z,1928.00
2018-07-01T12:45:02.526Z,1920.00
2018-07-01T12:46:02.529Z,1908.00
2018-07-01T12:47:02.609Z,1904.00
2018-07-01T12:48:02.599Z,1896.00
2018-07-01T12:49:02.618Z,1888.00
2018-07-01T12:50:02.586Z,1884.00
2018-07-01T12:51:02.562Z,1872.00